Time;durP1;ratioP1;P1;durP2;ratioP2;P2;SDS_P1;SDS_P2;PMS_P1;PMS_P2;Temp;Humidity;BMP_temperature;BMP_pressure;BME280_temperature;BME280_humidity;BME280_pressure;Samples;Min_cycle;Max_cycle;Signal;HPM_P1;HPM_P2
2021/01/28 00:00:35;;;;;;;7.80;6.88;;;3.20;99.90;;;;;;5080201;28;20239;-92
2021/01/28 00:03:04;;;;;;;10.55;7.70;;;3.20;99.90;;;;;;5074487;28;20263;-93
2021/01/28 00:05:33;;;;;;;11.77;8.45;;;3.20;99.90;;;;;;5076408;28;20284;-92
2021/01/28 00:08:01;;;;;;;11.18;7.40;;;3.20;99.90;;;;;;5076825;28;20304;-93
2021/01/28 00:10:28;;;;;;;9.30;7.72;;;3.20;99.90;;;;;;5076291;28;20233;-92
2021/01/28 00:12:54;;;;;;;8.30;7.15;;;3.20;99.90;;;;;;5075822;28;20292;-90
2021/01/28 00:15:23;;;;;;;10.90;8.63;;;3.20;99.90;;;;;;5096031;28;20820;-89
2021/01/28 00:17:50;;;;;;;10.45;9.30;;;3.20;99.90;;;;;;5096490;28;20620;-91
2021/01/28 00:20:19;;;;;;;11.40;7.70;;;3.20;99.90;;;;;;5092049;28;20266;-91
2021/01/28 00:22:46;;;;;;;12.40;7.90;;;3.20;99.90;;;;;;5096147;28;20720;-88
2021/01/28 00:25:15;;;;;;;12.10;8.75;;;3.20;99.90;;;;;;5091572;28;20309;-86
2021/01/28 00:27:41;;;;;;;8.15;7.10;;;3.20;99.90;;;;;;5095909;28;20204;-93
2021/01/28 00:30:10;;;;;;;10.95;7.70;;;3.20;99.90;;;;;;5093849;28;20287;-91
2021/01/28 00:32:36;;;;;;;11.32;7.32;;;3.20;99.90;;;;;;5096077;28;20280;-93
2021/01/28 00:35:03;;;;;;;8.48;7.45;;;3.20;99.90;;;;;;5098283;28;20697;-93
2021/01/28 00:37:31;;;;;;;10.65;7.45;;;3.10;99.90;;;;;;5102468;28;20320;-93
2021/01/28 00:39:57;;;;;;;8.77;7.70;;;3.10;99.90;;;;;;5099726;28;20292;-93
2021/01/28 00:42:24;;;;;;;9.52;7.05;;;3.00;99.90;;;;;;5096786;28;20209;-94
2021/01/28 00:44:50;;;;;;;11.07;7.88;;;2.90;99.90;;;;;;5096634;28;20292;-85
2021/01/28 00:47:17;;;;;;;8.95;7.05;;;2.90;99.90;;;;;;5096721;28;20189;-92
2021/01/28 00:49:43;;;;;;;11.73;6.63;;;2.90;99.90;;;;;;5095515;28;20193;-92
2021/01/28 00:52:09;;;;;;;9.55;7.00;;;3.00;99.90;;;;;;5109379;28;20216;-91
2021/01/28 00:54:37;;;;;;;6.85;5.90;;;3.00;99.90;;;;;;5107301;28;20208;-92
2021/01/28 00:57:04;;;;;;;11.50;7.50;;;3.10;99.90;;;;;;5096150;28;20319;-90
2021/01/28 00:59:30;;;;;;;8.63;7.45;;;3.10;99.90;;;;;;5095961;28;20193;-90
2021/01/28 01:01:57;;;;;;;10.45;7.50;;;3.10;99.90;;;;;;5095572;28;20664;-90
2021/01/28 01:04:23;;;;;;;8.45;6.38;;;3.20;99.90;;;;;;5094428;28;20777;-92
2021/01/28 01:06:51;;;;;;;6.93;6.10;;;3.10;99.90;;;;;;5096102;28;20284;-91
2021/01/28 01:09:17;;;;;;;9.65;6.50;;;3.10;99.90;;;;;;5095360;28;20220;-91
2021/01/28 01:11:44;;;;;;;6.78;6.15;;;3.10;99.90;;;;;;5095618;28;20345;-92
2021/01/28 01:14:11;;;;;;;8.07;6.15;;;3.10;99.90;;;;;;5095609;28;20694;-88
2021/01/28 01:16:37;;;;;;;10.10;6.20;;;3.10;99.90;;;;;;5095105;28;20755;-92
2021/01/28 01:19:04;;;;;;;6.78;5.10;;;3.10;99.90;;;;;;5094472;28;20276;-92
2021/01/28 01:21:30;;;;;;;7.82;5.95;;;3.20;99.90;;;;;;5094791;28;20322;-89
2021/01/28 01:23:57;;;;;;;7.95;6.68;;;3.20;99.90;;;;;;5095547;28;20652;-90
2021/01/28 01:26:23;;;;;;;9.25;6.05;;;3.20;99.90;;;;;;5095716;28;20211;-93
2021/01/28 01:28:50;;;;;;;7.60;5.63;;;3.20;99.90;;;;;;5095890;28;20228;-92
2021/01/28 01:31:17;;;;;;;6.30;5.32;;;3.20;99.90;;;;;;5094818;28;20289;-90
2021/01/28 01:33:44;;;;;;;7.65;5.30;;;3.20;99.90;;;;;;5093959;28;20235;-90
2021/01/28 01:36:11;;;;;;;7.85;5.78;;;3.20;99.90;;;;;;5092641;28;20719;-91
2021/01/28 01:38:37;;;;;;;5.93;4.63;;;3.30;99.90;;;;;;5094485;28;20227;-92
2021/01/28 01:41:03;;;;;;;7.65;4.07;;;3.30;99.90;;;;;;5094117;28;20345;-90
2021/01/28 01:43:30;;;;;;;5.70;5.15;;;3.30;99.90;;;;;;5089391;28;20216;-90
2021/01/28 01:46:00;;;;;;;5.57;4.35;;;3.30;99.90;;;;;;5074343;28;20210;-89
2021/01/28 01:48:30;;;;;;;7.63;6.20;;;3.30;99.90;;;;;;5074536;28;20202;-91
2021/01/28 01:51:00;;;;;;;7.18;5.00;;;3.30;99.90;;;;;;5075737;28;20205;-92
2021/01/28 01:53:30;;;;;;;6.07;4.63;;;3.30;99.90;;;;;;5075998;28;20291;-91
2021/01/28 01:55:59;;;;;;;5.57;5.03;;;3.40;99.90;;;;;;5076667;28;20239;-92
2021/01/28 01:58:46;;;;;;;5.20;4.50;;;3.30;99.90;;;;;;5077204;28;20229;-90
2021/01/28 02:01:14;;;;;;;5.38;4.68;;;3.30;99.90;;;;;;5075952;28;20269;-91
2021/01/28 02:03:43;;;;;;;9.00;4.85;;;3.30;99.90;;;;;;5089780;28;20246;-92
2021/01/28 02:06:24;;;;;;;6.63;4.70;;;3.30;99.90;;;;;;5096705;28;20197;-94
2021/01/28 02:08:53;;;;;;;5.90;4.50;;;3.40;99.90;;;;;;5095690;28;20237;-90
2021/01/28 02:11:20;;;;;;;4.47;3.85;;;3.40;99.90;;;;;;5089994;28;20225;-92
2021/01/28 02:13:50;;;;;;;5.10;4.03;;;3.40;99.90;;;;;;5098182;28;20201;-89
2021/01/28 02:16:20;;;;;;;4.55;3.35;;;3.40;99.90;;;;;;5096655;28;20185;-87
2021/01/28 02:18:47;;;;;;;8.23;4.10;;;3.40;99.90;;;;;;5096295;28;20201;-85
2021/01/28 02:21:27;;;;;;;5.28;4.25;;;3.40;99.90;;;;;;5105942;28;20185;-83
2021/01/28 02:24:10;;;;;;;5.18;3.95;;;3.40;99.90;;;;;;5118605;28;20188;-86
2021/01/28 02:26:39;;;;;;;6.80;4.00;;;3.40;99.90;;;;;;5113594;28;20200;-86
2021/01/28 02:29:06;;;;;;;5.80;3.58;;;3.50;99.90;;;;;;5114124;28;20168;-82
2021/01/28 02:31:34;;;;;;;4.32;3.40;;;3.50;99.90;;;;;;5103993;28;20334;-93
2021/01/28 02:34:01;;;;;;;6.53;4.47;;;3.50;99.90;;;;;;5061724;28;20338;-92
2021/01/28 02:36:32;;;;;;;4.80;3.95;;;3.50;99.90;;;;;;5094363;28;20224;-90
2021/01/28 02:38:59;;;;;;;3.95;3.05;;;3.50;99.90;;;;;;5095987;28;20252;-92
2021/01/28 02:41:26;;;;;;;3.97;3.30;;;3.50;99.90;;;;;;5096106;28;20233;-93
2021/01/28 02:43:54;;;;;;;4.57;2.65;;;3.50;99.90;;;;;;5092760;28;20228;-93
2021/01/28 02:46:22;;;;;;;3.70;3.15;;;3.50;99.90;;;;;;5094787;28;20296;-91
2021/01/28 02:48:50;;;;;;;4.25;3.05;;;3.50;99.90;;;;;;5094362;28;20189;-92
2021/01/28 02:51:17;;;;;;;3.92;2.65;;;3.50;99.90;;;;;;5094204;28;20733;-93
2021/01/28 02:53:47;;;;;;;5.78;4.10;;;3.50;99.90;;;;;;5109232;28;20204;-91
2021/01/28 02:56:14;;;;;;;5.82;4.03;;;3.50;99.90;;;;;;5073304;28;20201;-91
2021/01/28 02:58:40;;;;;;;4.63;3.25;;;3.60;99.90;;;;;;5098696;28;20283;-94
2021/01/28 03:01:09;;;;;;;4.15;3.25;;;3.60;99.90;;;;;;5095508;28;20236;-93
2021/01/28 03:03:36;;;;;;;4.03;3.53;;;3.60;99.90;;;;;;5094298;28;20308;-90
2021/01/28 03:06:04;;;;;;;6.72;3.65;;;3.60;99.90;;;;;;5088216;28;20203;-91
2021/01/28 03:08:32;;;;;;;4.05;2.72;;;3.60;99.90;;;;;;5032115;28;20211;-91
2021/01/28 03:10:59;;;;;;;4.38;3.33;;;3.60;99.90;;;;;;5031850;28;20211;-93
2021/01/28 03:13:28;;;;;;;4.00;2.90;;;3.60;99.90;;;;;;5030166;28;20341;-91
2021/01/28 03:15:55;;;;;;;3.88;2.92;;;3.60;99.90;;;;;;5031687;28;20290;-89
2021/01/28 03:18:24;;;;;;;3.17;2.88;;;3.60;99.90;;;;;;5031305;28;20310;-90
2021/01/28 03:20:51;;;;;;;3.75;2.55;;;3.60;99.90;;;;;;5029189;28;20223;-91
2021/01/28 03:23:19;;;;;;;5.35;2.88;;;3.60;99.90;;;;;;4981867;28;20207;-90
2021/01/28 03:25:46;;;;;;;3.75;3.30;;;3.70;99.90;;;;;;5031553;28;21033;-90
2021/01/28 03:28:12;;;;;;;3.90;3.40;;;3.70;99.90;;;;;;5034598;28;20297;-92
2021/01/28 03:30:43;;;;;;;3.53;2.97;;;3.60;99.90;;;;;;5034125;28;20230;-91
2021/01/28 03:33:12;;;;;;;4.80;3.60;;;3.60;99.90;;;;;;5068200;28;20295;-90
2021/01/28 03:35:39;;;;;;;4.30;3.42;;;3.60;99.90;;;;;;5095339;28;20209;-89
2021/01/28 03:38:08;;;;;;;4.55;3.40;;;3.60;99.90;;;;;;5090578;28;20761;-90
2021/01/28 03:40:35;;;;;;;2.95;2.50;;;3.70;99.90;;;;;;5095929;28;20632;-88
2021/01/28 03:43:01;;;;;;;5.10;3.67;;;3.60;99.90;;;;;;5095985;28;20205;-89
2021/01/28 03:45:28;;;;;;;4.88;3.60;;;3.60;99.90;;;;;;5105902;28;20236;-90
2021/01/28 03:47:55;;;;;;;3.50;3.03;;;3.70;99.90;;;;;;5106970;28;20205;-90
2021/01/28 03:50:26;;;;;;;3.42;3.00;;;3.70;99.90;;;;;;5095485;28;20247;-88
2021/01/28 03:52:53;;;;;;;5.07;3.50;;;3.70;99.90;;;;;;5095583;28;20253;-90
2021/01/28 03:55:20;;;;;;;4.07;2.72;;;3.70;99.90;;;;;;5092368;28;20303;-89
2021/01/28 03:57:47;;;;;;;4.05;2.90;;;3.70;99.90;;;;;;5096013;28;20228;-89
2021/01/28 04:00:16;;;;;;;3.45;3.05;;;3.70;99.90;;;;;;5090838;28;20310;-90
2021/01/28 04:02:43;;;;;;;4.20;3.53;;;3.70;99.90;;;;;;5094879;28;20316;-88
2021/01/28 04:05:11;;;;;;;3.33;3.03;;;3.70;99.90;;;;;;5089439;28;20204;-89
2021/01/28 04:07:38;;;;;;;3.47;2.60;;;3.70;99.90;;;;;;5095756;28;20207;-92
2021/01/28 04:10:08;;;;;;;5.63;2.90;;;3.70;99.90;;;;;;5092130;28;20255;-89
2021/01/28 04:12:35;;;;;;;3.58;2.92;;;3.70;99.90;;;;;;5095368;28;20574;-90
2021/01/28 04:15:02;;;;;;;3.30;2.80;;;3.80;99.90;;;;;;5095548;28;20291;-90
2021/01/28 04:17:28;;;;;;;3.75;2.85;;;3.80;99.90;;;;;;5096087;28;20694;-90
2021/01/28 04:19:55;;;;;;;2.13;1.92;;;3.90;99.90;;;;;;5091489;28;20197;-93
2021/01/28 04:22:23;;;;;;;2.65;2.03;;;3.90;99.90;;;;;;5095397;28;20776;-88
2021/01/28 04:24:49;;;;;;;2.20;1.80;;;3.90;99.90;;;;;;5095081;28;20287;-91
2021/01/28 04:27:16;;;;;;;3.00;2.63;;;3.90;99.90;;;;;;5095119;28;20274;-90
2021/01/28 04:29:44;;;;;;;3.38;2.70;;;3.90;99.90;;;;;;5095813;28;20646;-90
2021/01/28 04:32:10;;;;;;;3.67;2.63;;;4.00;99.90;;;;;;5095582;28;20255;-88
2021/01/28 04:34:37;;;;;;;3.50;3.17;;;4.00;99.90;;;;;;5094376;28;20233;-89
2021/01/28 04:37:04;;;;;;;4.40;2.92;;;4.00;99.90;;;;;;5091808;28;20242;-88
2021/01/28 04:39:30;;;;;;;3.00;2.55;;;4.00;99.90;;;;;;5095159;28;20291;-90
2021/01/28 04:41:57;;;;;;;4.57;2.30;;;3.90;99.90;;;;;;5096777;28;20318;-91
2021/01/28 04:44:31;;;;;;;2.53;2.30;;;4.00;99.90;;;;;;5096243;28;20726;-89
2021/01/28 04:46:57;;;;;;;5.10;2.75;;;4.00;99.90;;;;;;5095263;28;20200;-93
2021/01/28 04:49:27;;;;;;;4.10;2.83;;;4.00;99.90;;;;;;5091494;28;20201;-91
2021/01/28 04:52:01;;;;;;;2.13;1.92;;;4.00;99.90;;;;;;5075602;28;20288;-92
2021/01/28 04:54:32;;;;;;;6.68;3.38;;;4.00;99.90;;;;;;5075030;28;20327;-92
2021/01/28 04:57:06;;;;;;;3.95;2.80;;;4.10;99.90;;;;;;5074977;28;20246;-91
2021/01/28 04:59:37;;;;;;;3.45;3.15;;;4.10;99.90;;;;;;5076308;28;20296;-89
2021/01/28 05:02:07;;;;;;;4.18;2.85;;;4.10;99.90;;;;;;5040871;28;20206;-94
2021/01/28 05:04:41;;;;;;;5.57;3.33;;;4.10;99.90;;;;;;5073451;28;20722;-93
2021/01/28 05:07:10;;;;;;;5.45;2.80;;;4.00;99.90;;;;;;5076037;28;20296;-91
2021/01/28 05:09:37;;;;;;;2.90;2.58;;;4.10;99.90;;;;;;5075203;28;20282;-90
2021/01/28 05:12:04;;;;;;;5.10;2.25;;;4.10;99.90;;;;;;5033721;28;20223;-89
2021/01/28 05:14:34;;;;;;;3.22;2.92;;;4.10;99.90;;;;;;5074158;28;20671;-88
2021/01/28 05:17:02;;;;;;;3.15;2.58;;;4.20;99.90;;;;;;5073758;28;20235;-86
2021/01/28 05:19:39;;;;;;;1.98;1.80;;;4.20;99.90;;;;;;5069535;28;20687;-89
2021/01/28 05:22:21;;;;;;;4.03;2.50;;;4.20;99.90;;;;;;5069844;28;20254;-89
2021/01/28 05:24:50;;;;;;;2.40;2.30;;;4.20;99.90;;;;;;5070906;28;20209;-89
2021/01/28 05:27:31;;;;;;;2.67;2.42;;;4.20;99.90;;;;;;5070797;28;20296;-88
2021/01/28 05:30:01;;;;;;;3.38;2.60;;;4.10;99.90;;;;;;5073628;28;20297;-90
2021/01/28 05:32:38;;;;;;;4.07;2.78;;;4.10;99.90;;;;;;5073825;28;20296;-87
2021/01/28 05:35:30;;;;;;;5.38;3.53;;;4.10;99.90;;;;;;5072375;28;20197;-90
2021/01/28 05:38:09;;;;;;;5.35;3.50;;;4.00;99.90;;;;;;5050249;28;20592;-92
2021/01/28 05:40:39;;;;;;;6.15;4.00;;;4.00;99.90;;;;;;5073942;28;20283;-91
2021/01/28 05:43:22;;;;;;;6.10;4.35;;;4.00;99.90;;;;;;5070684;28;20205;-88
2021/01/28 05:45:49;;;;;;;4.68;3.22;;;3.90;99.90;;;;;;5074282;28;20205;-90
2021/01/28 05:48:29;;;;;;;5.57;3.90;;;3.90;99.90;;;;;;5071567;28;20651;-92
2021/01/28 05:51:09;;;;;;;11.15;4.53;;;3.90;99.90;;;;;;5081113;28;20201;-91
2021/01/28 05:53:36;;;;;;;5.15;3.85;;;4.00;99.90;;;;;;5095036;28;20748;-93
2021/01/28 05:56:07;;;;;;;5.20;3.13;;;4.00;99.90;;;;;;5091114;28;20204;-91
2021/01/28 05:58:42;;;;;;;5.82;3.47;;;4.00;99.90;;;;;;5092186;28;20352;-89
2021/01/28 06:01:27;;;;;;;4.60;3.30;;;4.10;99.90;;;;;;5094805;28;20631;-90
2021/01/28 06:04:13;;;;;;;4.70;3.72;;;4.10;99.90;;;;;;5097455;28;20385;-91
2021/01/28 06:07:04;;;;;;;2.97;2.67;;;4.10;99.90;;;;;;5098213;28;20209;-90
2021/01/28 06:10:00;;;;;;;3.13;2.70;;;4.20;99.90;;;;;;5094191;28;20291;-91
2021/01/28 06:12:41;;;;;;;4.82;3.35;;;4.20;99.90;;;;;;5092743;28;20656;-92
2021/01/28 06:15:29;;;;;;;4.82;2.72;;;4.20;99.90;;;;;;5093489;28;20204;-88
2021/01/28 06:18:21;;;;;;;3.42;3.08;;;4.20;99.90;;;;;;5094099;28;20316;-93
2021/01/28 06:21:20;;;;;;;4.18;3.28;;;4.20;99.90;;;;;;5094879;28;20292;-93
2021/01/28 06:24:05;;;;;;;2.72;2.53;;;4.20;99.90;;;;;;5059870;28;20228;-93
2021/01/28 06:26:43;;;;;;;3.20;2.90;;;4.20;99.90;;;;;;5117807;28;20635;-93
2021/01/28 06:29:30;;;;;;;6.18;3.47;;;4.20;99.90;;;;;;5117685;28;20195;-85
2021/01/28 06:32:12;;;;;;;4.22;3.83;;;4.20;99.90;;;;;;5064729;28;20184;-93
2021/01/28 06:35:13;;;;;;;4.07;3.42;;;4.10;99.90;;;;;;5112181;28;20212;-89
2021/01/28 06:37:52;;;;;;;7.30;5.32;;;4.10;99.90;;;;;;5116754;28;20220;-87
2021/01/28 06:40:24;;;;;;;5.63;4.65;;;4.10;99.90;;;;;;5115137;28;20196;-91
2021/01/28 06:42:55;;;;;;;10.18;5.45;;;4.10;99.90;;;;;;5101092;28;20296;-92
2021/01/28 06:45:26;;;;;;;7.22;5.40;;;4.00;99.90;;;;;;5091608;28;20254;-93
2021/01/28 06:47:59;;;;;;;5.75;4.55;;;4.10;99.90;;;;;;5037064;28;20197;-90
2021/01/28 06:50:32;;;;;;;5.47;4.80;;;4.00;99.90;;;;;;5092468;28;20205;-88
2021/01/28 06:53:07;;;;;;;6.40;4.75;;;4.00;99.90;;;;;;5073321;28;20606;-90
2021/01/28 06:55:41;;;;;;;5.32;4.35;;;4.00;99.90;;;;;;5072618;28;20205;-89
2021/01/28 06:58:31;;;;;;;7.00;4.25;;;4.00;99.90;;;;;;5073087;28;20336;-90
2021/01/28 07:01:05;;;;;;;7.45;5.35;;;4.10;99.90;;;;;;5073232;28;20198;-88
2021/01/28 07:03:42;;;;;;;7.32;4.75;;;4.10;99.90;;;;;;5073081;28;20322;-88
2021/01/28 07:06:29;;;;;;;6.22;4.65;;;4.00;99.90;;;;;;5076754;28;20284;-91
2021/01/28 07:09:02;;;;;;;9.50;3.65;;;4.00;99.90;;;;;;5077286;28;20284;-88
2021/01/28 07:11:34;;;;;;;9.32;4.60;;;4.00;99.90;;;;;;5076843;28;20205;-89
2021/01/28 07:14:01;;;;;;;5.95;5.20;;;4.00;99.90;;;;;;5077973;28;20201;-89
2021/01/28 07:16:38;;;;;;;6.70;5.45;;;4.00;99.90;;;;;;5075007;28;20289;-93
2021/01/28 07:19:12;;;;;;;8.00;5.90;;;4.00;99.90;;;;;;5077180;28;20240;-90
2021/01/28 07:21:43;;;;;;;7.93;5.70;;;4.00;99.90;;;;;;5083726;28;20250;-90
2021/01/28 07:24:24;;;;;;;6.55;4.97;;;3.90;99.90;;;;;;5096754;28;20728;-91
2021/01/28 07:26:56;;;;;;;13.00;6.03;;;4.00;99.90;;;;;;5096177;28;20278;-88
2021/01/28 07:29:55;;;;;;;7.10;4.88;;;3.90;99.90;;;;;;5096433;28;20236;-88
2021/01/28 07:32:55;;;;;;;6.70;5.13;;;3.90;99.90;;;;;;5095755;28;20204;-88
2021/01/28 07:35:47;;;;;;;8.50;6.30;;;3.90;99.90;;;;;;4993381;28;20223;-87
2021/01/28 07:38:43;;;;;;;8.23;5.60;;;3.90;99.90;;;;;;4978418;28;20315;-89
2021/01/28 07:41:31;;;;;;;10.75;6.15;;;3.90;99.90;;;;;;5040588;28;20208;-90
2021/01/28 07:44:30;;;;;;;10.07;6.25;;;3.90;99.90;;;;;;5096723;28;20236;-91
2021/01/28 07:46:59;;;;;;;7.65;5.72;;;3.80;99.90;;;;;;5095923;28;20724;-89
2021/01/28 07:49:27;;;;;;;10.38;5.82;;;3.80;99.90;;;;;;5097052;28;20264;-90
2021/01/28 07:52:30;;;;;;;7.72;5.95;;;3.80;99.90;;;;;;5045616;28;20296;-89
2021/01/28 07:54:58;;;;;;;11.30;8.30;;;3.90;99.90;;;;;;5095525;28;20638;-89
2021/01/28 07:57:43;;;;;;;9.88;7.35;;;3.90;99.90;;;;;;5096119;28;20719;-91
2021/01/28 08:00:12;;;;;;;8.68;6.63;;;3.90;99.90;;;;;;5095958;28;20293;-90
2021/01/28 08:02:39;;;;;;;8.20;5.38;;;4.00;99.90;;;;;;5092256;28;20237;-89
2021/01/28 08:05:12;;;;;;;7.45;6.45;;;4.00;99.90;;;;;;5094782;28;20253;-89
2021/01/28 08:07:42;;;;;;;8.65;5.88;;;4.00;99.90;;;;;;5095798;28;20208;-90
2021/01/28 08:10:25;;;;;;;9.02;5.65;;;4.00;99.90;;;;;;5096210;28;20208;-92
2021/01/28 08:12:54;;;;;;;9.80;5.85;;;4.10;99.90;;;;;;5095760;28;20282;-88
2021/01/28 08:15:27;;;;;;;8.15;5.00;;;4.10;99.90;;;;;;5095406;28;20640;-89
2021/01/28 08:18:10;;;;;;;8.77;6.30;;;4.20;99.90;;;;;;5096124;28;20239;-91
2021/01/28 08:20:37;;;;;;;7.70;3.70;;;4.30;99.90;;;;;;5044290;28;20739;-90
2021/01/28 08:23:05;;;;;;;4.65;3.92;;;4.50;99.90;;;;;;5095779;28;20205;-90
2021/01/28 08:25:37;;;;;;;3.13;2.53;;;4.50;99.90;;;;;;5097347;28;20243;-92
2021/01/28 08:28:14;;;;;;;3.88;3.35;;;4.60;99.90;;;;;;5098090;28;20205;-93
2021/01/28 08:30:41;;;;;;;5.80;3.05;;;4.70;99.90;;;;;;5097853;28;20204;-92
2021/01/28 08:33:14;;;;;;;4.05;2.50;;;4.70;99.90;;;;;;5097383;28;20300;-91
2021/01/28 08:35:44;;;;;;;3.08;2.50;;;4.70;99.90;;;;;;5094610;28;20215;-91
2021/01/28 08:38:17;;;;;;;5.20;3.47;;;4.80;99.90;;;;;;5096253;28;20282;-91
2021/01/28 08:40:47;;;;;;;3.10;2.80;;;4.80;99.90;;;;;;5096138;28;20243;-89
2021/01/28 08:43:19;;;;;;;4.15;3.33;;;4.80;99.90;;;;;;5095167;28;20254;-88
2021/01/28 08:45:45;;;;;;;4.50;3.00;;;4.90;99.90;;;;;;5095145;28;20212;-85
2021/01/28 08:48:15;;;;;;;5.43;4.13;;;4.80;99.90;;;;;;5094554;28;20201;-87
2021/01/28 08:50:43;;;;;;;4.57;2.88;;;4.80;99.90;;;;;;5092694;28;20618;-86
2021/01/28 08:53:16;;;;;;;5.03;3.83;;;4.80;99.90;;;;;;5094522;28;20207;-87
2021/01/28 08:55:44;;;;;;;4.47;2.67;;;4.80;99.90;;;;;;5091289;28;20236;-86
2021/01/28 08:58:17;;;;;;;8.32;4.25;;;4.90;99.90;;;;;;5094446;28;20655;-87
2021/01/28 09:00:45;;;;;;;6.85;3.55;;;5.00;99.90;;;;;;5043127;28;20200;-84
2021/01/28 09:03:17;;;;;;;2.92;2.63;;;4.90;99.90;;;;;;5094442;28;20233;-84
2021/01/28 09:05:43;;;;;;;3.03;2.60;;;5.00;99.90;;;;;;5093239;28;20283;-87
2021/01/28 09:08:28;;;;;;;4.25;3.40;;;5.00;99.90;;;;;;5094517;28;20620;-86
2021/01/28 09:11:07;;;;;;;4.72;3.00;;;5.00;99.90;;;;;;5042407;28;20656;-84
2021/01/28 09:13:34;;;;;;;5.28;3.45;;;5.00;99.90;;;;;;5094267;28;20250;-86
2021/01/28 09:16:14;;;;;;;5.03;3.47;;;5.00;99.90;;;;;;5094085;28;20296;-89
2021/01/28 09:18:43;;;;;;;2.90;2.67;;;5.10;99.90;;;;;;5091232;28;20289;-87
2021/01/28 09:21:15;;;;;;;2.30;2.08;;;5.10;99.90;;;;;;5091965;28;20240;-87
2021/01/28 09:23:59;;;;;;;3.72;2.33;;;5.10;99.90;;;;;;5093232;28;20205;-86
2021/01/28 09:26:30;;;;;;;5.55;3.33;;;5.20;99.90;;;;;;5093537;28;20258;-86
2021/01/28 09:29:08;;;;;;;3.30;2.90;;;5.20;99.90;;;;;;5094221;28;20213;-87
2021/01/28 09:31:36;;;;;;;3.25;2.45;;;5.30;99.90;;;;;;5093568;28;20205;-84
2021/01/28 09:34:24;;;;;;;3.72;2.60;;;5.30;99.90;;;;;;5094185;28;20211;-85
2021/01/28 09:36:56;;;;;;;4.20;2.60;;;5.40;99.90;;;;;;5094852;28;20236;-84
2021/01/28 09:39:29;;;;;;;2.47;2.28;;;5.40;99.90;;;;;;5090132;28;20660;-84
2021/01/28 09:42:09;;;;;;;2.15;1.88;;;5.50;99.90;;;;;;5093382;28;20201;-85
2021/01/28 09:44:39;;;;;;;2.30;2.00;;;5.50;99.90;;;;;;5093816;28;20658;-85
2021/01/28 09:47:28;;;;;;;2.70;2.28;;;5.60;99.90;;;;;;5089580;28;20200;-85
2021/01/28 09:49:57;;;;;;;6.22;3.50;;;5.60;99.90;;;;;;5085583;28;20215;-89
2021/01/28 09:52:27;;;;;;;14.52;9.00;;;5.60;99.90;;;;;;5091652;28;20299;-88
2021/01/28 09:54:58;;;;;;;14.20;8.52;;;5.50;99.90;;;;;;5093423;28;20683;-86
2021/01/28 09:57:26;;;;;;;4.43;3.70;;;5.60;99.90;;;;;;5093356;28;20265;-87
2021/01/28 09:59:53;;;;;;;7.38;5.00;;;5.60;99.90;;;;;;5041824;28;20215;-84
2021/01/28 10:02:23;;;;;;;4.88;4.03;;;5.60;99.90;;;;;;5090132;28;20320;-85
2021/01/28 10:04:50;;;;;;;5.20;3.45;;;5.70;99.90;;;;;;5091701;28;20668;-85
2021/01/28 10:07:16;;;;;;;2.40;2.20;;;5.60;99.90;;;;;;5093138;28;20236;-84
2021/01/28 10:09:46;;;;;;;2.60;2.05;;;5.70;99.90;;;;;;5093258;28;20206;-84
2021/01/28 10:12:14;;;;;;;3.47;1.55;;;5.80;99.90;;;;;;5092873;28;20236;-83
2021/01/28 10:14:42;;;;;;;2.60;2.40;;;5.80;99.90;;;;;;5093134;28;20246;-87
2021/01/28 10:17:12;;;;;;;2.90;1.92;;;5.90;99.90;;;;;;5092894;28;20283;-83
2021/01/28 10:19:41;;;;;;;2.20;1.73;;;5.90;99.90;;;;;;5091399;28;20205;-84
2021/01/28 10:22:09;;;;;;;2.75;1.90;;;5.90;99.90;;;;;;5093163;28;20223;-85
2021/01/28 10:24:36;;;;;;;1.85;1.70;;;5.90;99.90;;;;;;5093209;28;20204;-85
2021/01/28 10:27:02;;;;;;;1.80;1.70;;;6.00;99.90;;;;;;5085295;28;20266;-86
2021/01/28 10:29:29;;;;;;;31.55;9.75;;;6.00;99.90;;;;;;4995421;28;20200;-85
2021/01/28 10:31:56;;;;;;;3.15;2.30;;;6.10;99.90;;;;;;5000889;28;20212;-83
2021/01/28 10:34:22;;;;;;;4.28;2.35;;;6.20;99.90;;;;;;4975273;28;20302;-81
2021/01/28 10:36:50;;;;;;;7.40;2.70;;;6.10;99.90;;;;;;5006397;28;20303;-85
2021/01/28 10:39:17;;;;;;;3.75;1.98;;;6.20;99.90;;;;;;4995696;28;20236;-83
2021/01/28 10:41:44;;;;;;;3.50;3.20;;;6.10;99.90;;;;;;5010508;28;20251;-83
2021/01/28 10:44:10;;;;;;;10.80;3.97;;;6.20;99.90;;;;;;5005603;28;20275;-83
2021/01/28 10:46:38;;;;;;;7.95;2.92;;;6.20;99.90;;;;;;5003799;28;20682;-81
2021/01/28 10:49:05;;;;;;;4.00;2.80;;;6.30;99.90;;;;;;4996078;28;20276;-86
2021/01/28 10:51:32;;;;;;;3.58;2.85;;;6.30;99.90;;;;;;4990399;28;20200;-84
2021/01/28 10:53:58;;;;;;;3.00;2.50;;;6.50;99.90;;;;;;5035395;28;20655;-86
2021/01/28 10:56:24;;;;;;;4.30;2.80;;;6.40;99.90;;;;;;5077412;28;20292;-87
2021/01/28 10:58:52;;;;;;;3.22;2.70;;;6.40;99.90;;;;;;5078419;28;20268;-89
2021/01/28 11:01:19;;;;;;;2.85;2.47;;;6.50;99.90;;;;;;5074874;28;20206;-87
2021/01/28 11:03:45;;;;;;;4.70;3.00;;;6.50;99.90;;;;;;5079231;28;20260;-90
2021/01/28 11:06:13;;;;;;;3.50;2.45;;;6.50;99.90;;;;;;5076812;28;20293;-93
2021/01/28 11:08:40;;;;;;;6.03;3.90;;;6.70;99.90;;;;;;5074293;28;20259;-86
2021/01/28 11:11:06;;;;;;;4.25;3.22;;;6.70;99.90;;;;;;5075639;28;20981;-87
2021/01/28 11:13:33;;;;;;;4.17;3.20;;;6.60;99.90;;;;;;5076895;28;20648;-90
2021/01/28 11:16:00;;;;;;;2.05;1.92;;;6.60;99.90;;;;;;5073702;28;20448;-89
2021/01/28 11:18:26;;;;;;;3.17;1.80;;;6.70;99.90;;;;;;5088345;28;20240;-88
2021/01/28 11:20:53;;;;;;;1.70;1.60;;;6.70;99.90;;;;;;5089414;28;20212;-86
2021/01/28 11:23:22;;;;;;;2.08;1.77;;;6.70;99.90;;;;;;5076819;28;20223;-87
2021/01/28 11:25:48;;;;;;;2.33;1.40;;;6.60;99.90;;;;;;5076514;28;20308;-90
2021/01/28 11:28:15;;;;;;;2.72;1.55;;;6.60;99.90;;;;;;5072911;28;20444;-85
2021/01/28 11:30:41;;;;;;;1.33;1.10;;;6.60;99.90;;;;;;5076748;28;20212;-87
2021/01/28 11:33:08;;;;;;;2.83;2.03;;;6.60;99.90;;;;;;5077296;28;20265;-93
2021/01/28 11:35:37;;;;;;;5.10;3.08;;;6.60;99.90;;;;;;5076545;28;20640;-91
2021/01/28 11:38:05;;;;;;;5.80;2.70;;;6.60;99.90;;;;;;5076732;28;20279;-90
2021/01/28 11:40:35;;;;;;;3.58;2.88;;;6.80;99.90;;;;;;5076310;28;20206;-89
2021/01/28 11:43:03;;;;;;;8.45;3.15;;;6.80;99.90;;;;;;5076507;28;20248;-87
2021/01/28 11:45:32;;;;;;;3.70;3.40;;;7.00;99.90;;;;;;5077282;28;20208;-89
2021/01/28 11:47:59;;;;;;;4.00;2.08;;;7.00;99.90;;;;;;5078690;28;20206;-85
2021/01/28 11:50:25;;;;;;;5.10;1.83;;;7.10;99.90;;;;;;5084149;28;20228;-90
2021/01/28 11:52:52;;;;;;;1.50;1.40;;;7.30;99.90;;;;;;5092992;28;20228;-86
2021/01/28 11:55:21;;;;;;;0.90;0.90;;;7.30;99.90;;;;;;5096767;28;20484;-90
2021/01/28 11:57:50;;;;;;;1.03;0.97;;;7.30;99.90;;;;;;5099012;28;20488;-89
2021/01/28 12:00:19;;;;;;;1.13;1.00;;;7.40;99.90;;;;;;5087789;28;20500;-88
2021/01/28 12:02:46;;;;;;;2.33;1.07;;;7.30;99.90;;;;;;5096946;28;20517;-90
2021/01/28 12:05:14;;;;;;;1.33;0.97;;;7.30;99.90;;;;;;5095363;28;20475;-87
2021/01/28 12:07:41;;;;;;;1.08;0.75;;;7.30;99.90;;;;;;5095971;28;21028;-88
2021/01/28 12:10:10;;;;;;;1.20;0.93;;;7.30;99.90;;;;;;5092356;28;20240;-83
2021/01/28 12:12:37;;;;;;;0.70;0.70;;;7.30;99.90;;;;;;5051256;28;20971;-86
2021/01/28 12:15:08;;;;;;;0.82;0.82;;;7.40;99.90;;;;;;5050003;28;20473;-91
2021/01/28 12:17:34;;;;;;;0.60;0.60;;;7.50;99.90;;;;;;5034032;28;20286;-87
2021/01/28 12:20:01;;;;;;;0.80;0.80;;;7.50;99.90;;;;;;5032598;28;20372;-84
2021/01/28 12:22:28;;;;;;;0.67;0.67;;;7.50;99.90;;;;;;5032600;28;20269;-84
2021/01/28 12:24:55;;;;;;;1.00;0.95;;;7.50;99.90;;;;;;4984101;28;20533;-88
2021/01/28 12:27:21;;;;;;;2.93;0.80;;;7.50;99.90;;;;;;5033464;28;20442;-88
2021/01/28 12:29:48;;;;;;;0.83;0.83;;;7.60;99.90;;;;;;5033207;28;20449;-88
2021/01/28 12:32:15;;;;;;;1.13;1.08;;;7.60;99.90;;;;;;5033230;28;20464;-86
2021/01/28 12:34:42;;;;;;;0.80;0.80;;;7.60;99.90;;;;;;5029992;28;20651;-88
2021/01/28 12:37:09;;;;;;;1.37;0.80;;;7.70;99.90;;;;;;5032716;28;20821;-89
2021/01/28 12:39:35;;;;;;;0.70;0.70;;;7.80;99.90;;;;;;5054353;28;20480;-87
2021/01/28 12:42:02;;;;;;;2.40;0.87;;;7.90;99.90;;;;;;5058426;28;20590;-88
2021/01/28 12:44:28;;;;;;;0.70;0.70;;;8.10;99.90;;;;;;5050516;28;20557;-86
2021/01/28 12:46:54;;;;;;;1.23;1.00;;;8.10;99.90;;;;;;4956661;28;20476;-89
2021/01/28 12:49:22;;;;;;;1.20;1.07;;;8.10;99.90;;;;;;5053608;28;20460;-88
2021/01/28 12:51:49;;;;;;;1.27;1.17;;;8.10;99.90;;;;;;5069226;28;20545;-89
2021/01/28 12:54:16;;;;;;;1.73;1.20;;;8.10;99.90;;;;;;4964506;28;20474;-89
2021/01/28 12:56:42;;;;;;;2.30;1.30;;;8.30;99.90;;;;;;5015748;28;20581;-87
2021/01/28 12:59:09;;;;;;;1.10;0.97;;;8.30;99.90;;;;;;5011798;28;20664;-90
2021/01/28 13:01:35;;;;;;;1.00;0.70;;;8.20;99.90;;;;;;5012816;28;20489;-88
2021/01/28 13:04:01;;;;;;;1.13;1.03;;;8.30;99.90;;;;;;5027030;28;20482;-87
2021/01/28 13:06:29;;;;;;;1.17;1.10;;;8.30;99.90;;;;;;5032269;28;20454;-89
2021/01/28 13:08:56;;;;;;;1.17;0.90;;;8.40;99.90;;;;;;5032711;28;20830;-87
2021/01/28 13:11:23;;;;;;;0.60;0.60;;;8.30;99.90;;;;;;5037968;28;20537;-87
2021/01/28 13:13:50;;;;;;;1.00;0.80;;;8.30;99.90;;;;;;5094548;28;20450;-88